createdAt,value
2023-05-22T00:00:05.222Z,10.40
2023-05-22T00:00:16.205Z,10.00
2023-05-22T00:00:26.980Z,9.80
2023-05-22T00:00:38.143Z,9.80
2023-05-22T00:00:48.653Z,10.00
2023-05-22T00:00:59.402Z,9.90
2023-05-22T00:01:10.451Z,9.70
2023-05-22T00:01:21.472Z,9.30
2023-05-22T00:01:32.208Z,9.50
2023-05-22T00:01:43.294Z,9.60
2023-05-22T00:01:54.296Z,9.70
2023-05-22T00:02:05.110Z,10.20
2023-05-22T00:02:16.139Z,10.50
2023-05-22T00:02:27.137Z,10.90
2023-05-22T00:02:37.960Z,10.30
2023-05-22T00:02:48.680Z,10.00
2023-05-22T00:02:59.202Z,9.80
2023-05-22T00:03:10.006Z,9.80
2023-05-22T00:03:21.059Z,10.20
2023-05-22T00:03:32.046Z,10.20
2023-05-22T00:03:42.774Z,10.30
2023-05-22T00:03:53.806Z,10.40
2023-05-22T00:04:04.789Z,10.60
2023-05-22T00:04:15.540Z,10.30
2023-05-22T00:04:26.600Z,10.20
2023-05-22T00:04:37.571Z,10.20
2023-05-22T00:04:48.347Z,10.40
2023-05-22T00:04:59.394Z,10.00
2023-05-22T00:05:10.429Z,10.10
2023-05-22T00:05:21.246Z,10.30
2023-05-22T00:05:31.832Z,10.30
2023-05-22T00:05:42.755Z,10.10
2023-05-22T00:05:53.591Z,10.20
2023-05-22T00:06:04.084Z,10.50
2023-05-22T00:06:15.068Z,10.10
2023-05-22T00:06:25.884Z,9.80
2023-05-22T00:06:36.424Z,10.10
2023-05-22T00:06:47.397Z,10.50
2023-05-22T00:06:58.166Z,10.90
2023-05-22T00:07:09.198Z,10.90
2023-05-22T00:07:20.166Z,10.60
2023-05-22T00:07:30.960Z,10.20
2023-05-22T00:07:42.025Z,9.70
2023-05-22T00:07:52.963Z,9.60
2023-05-22T00:08:03.735Z,9.50
2023-05-22T00:08:14.771Z,9.70
2023-05-22T00:08:27.950Z,10.00
2023-05-22T00:08:36.595Z,10.30
2023-05-22T00:08:47.626Z,10.00
2023-05-22T00:08:58.573Z,9.90
2023-05-22T00:09:09.414Z,9.80
2023-05-22T00:09:19.904Z,10.10
2023-05-22T00:09:30.862Z,10.10
2023-05-22T00:09:41.632Z,10.10
2023-05-22T00:09:52.705Z,10.10
2023-05-22T00:10:03.644Z,9.90
2023-05-22T00:10:14.416Z,9.50
2023-05-22T00:10:25.479Z,9.90
2023-05-22T00:10:36.547Z,9.80
2023-05-22T00:10:47.432Z,9.80
2023-05-22T00:10:58.455Z,9.50
2023-05-22T00:11:09.427Z,9.90
2023-05-22T00:11:20.186Z,10.00
2023-05-22T00:11:31.267Z,10.10
2023-05-22T00:11:42.231Z,10.30
2023-05-22T00:11:53.001Z,10.50
2023-05-22T00:12:04.047Z,10.50
2023-05-22T00:12:15.022Z,10.20
2023-05-22T00:12:25.880Z,10.50
2023-05-22T00:12:36.864Z,10.40
2023-05-22T00:12:47.827Z,10.60
2023-05-22T00:12:58.628Z,10.00
2023-05-22T00:13:09.653Z,9.80
2023-05-22T00:13:20.596Z,10.20
2023-05-22T00:13:31.371Z,10.40
2023-05-22T00:13:42.418Z,10.50
2023-05-22T00:13:53.386Z,10.30
2023-05-22T00:14:04.168Z,10.20
2023-05-22T00:14:15.207Z,10.40
2023-05-22T00:14:26.181Z,10.40
2023-05-22T00:14:36.983Z,10.30
2023-05-22T00:14:47.984Z,10.20
2023-05-22T00:14:58.978Z,10.10
2023-05-22T00:15:09.723Z,10.30
2023-05-22T00:15:20.794Z,10.20
2023-05-22T00:15:31.771Z,9.90
2023-05-22T00:15:42.508Z,10.60
2023-05-22T00:15:53.575Z,10.90
2023-05-22T00:16:04.547Z,10.90
2023-05-22T00:16:15.298Z,10.70
2023-05-22T00:16:26.392Z,10.70
2023-05-22T00:16:37.356Z,10.60
2023-05-22T00:16:48.304Z,10.40
2023-05-22T00:16:59.023Z,10.40
2023-05-22T00:17:10.028Z,10.70
2023-05-22T00:17:20.850Z,10.70
2023-05-22T00:17:31.415Z,10.80
2023-05-22T00:17:42.409Z,10.50
2023-05-22T00:17:53.229Z,10.40
2023-05-22T00:18:03.745Z,10.50
2023-05-22T00:18:14.716Z,10.80
2023-05-22T00:18:25.480Z,10.60
2023-05-22T00:18:36.513Z,10.10
2023-05-22T00:18:47.545Z,9.90
2023-05-22T00:18:58.463Z,9.90
2023-05-22T00:19:09.494Z,10.20
2023-05-22T00:19:20.493Z,10.60
2023-05-22T00:19:31.406Z,10.50
2023-05-22T00:19:41.938Z,10.50
2023-05-22T00:19:52.905Z,10.40
2023-05-22T00:20:03.704Z,10.60
2023-05-22T00:20:14.797Z,10.60
2023-05-22T00:20:25.861Z,10.60
2023-05-22T00:20:36.721Z,10.70
2023-05-22T00:20:47.247Z,10.30
2023-05-22T00:20:58.236Z,10.40
2023-05-22T00:21:09.019Z,10.20
2023-05-22T00:21:20.070Z,10.40
2023-05-22T00:21:31.108Z,10.30
2023-05-22T00:21:41.861Z,10.50
2023-05-22T00:21:52.901Z,10.70
2023-05-22T00:22:03.900Z,10.80
2023-05-22T00:22:14.641Z,10.80
2023-05-22T00:22:25.703Z,10.50
2023-05-22T00:22:36.679Z,10.30
2023-05-22T00:22:47.456Z,10.30
2023-05-22T00:22:58.502Z,10.30
2023-05-22T00:23:09.529Z,10.20
2023-05-22T00:23:20.242Z,10.10
2023-05-22T00:23:31.323Z,10.10
2023-05-22T00:23:42.278Z,10.30
2023-05-22T00:23:53.061Z,10.60
2023-05-22T00:24:04.094Z,11.10
2023-05-22T00:24:15.068Z,10.90
2023-05-22T00:24:25.915Z,11.00
2023-05-22T00:24:36.402Z,10.90
2023-05-22T00:24:47.465Z,10.90
2023-05-22T00:24:58.199Z,10.60
2023-05-22T00:25:08.845Z,11.00
2023-05-22T00:25:19.884Z,11.20
2023-05-22T00:25:30.656Z,11.00
2023-05-22T00:25:41.672Z,10.60
2023-05-22T00:25:52.639Z,10.70
2023-05-22T00:26:03.402Z,10.30
2023-05-22T00:26:14.452Z,10.00
2023-05-22T00:26:25.458Z,10.20
2023-05-22T00:26:36.208Z,10.30
2023-05-22T00:26:47.272Z,10.20
2023-05-22T00:26:58.277Z,10.50
2023-05-22T00:27:09.029Z,10.30
2023-05-22T00:27:20.110Z,10.50
2023-05-22T00:27:31.050Z,10.40
2023-05-22T00:27:41.867Z,10.40
2023-05-22T00:27:52.864Z,10.10
2023-05-22T00:28:03.841Z,10.60
2023-05-22T00:28:14.603Z,10.60
2023-05-22T00:28:25.662Z,10.30
2023-05-22T00:28:36.641Z,10.30
2023-05-22T00:28:47.423Z,10.20
2023-05-22T00:28:58.450Z,10.30
2023-05-22T00:29:09.447Z,10.70
2023-05-22T00:29:20.312Z,11.00
2023-05-22T00:29:30.790Z,10.70
2023-05-22T00:29:41.741Z,10.50
2023-05-22T00:29:52.556Z,10.40
2023-05-22T00:30:03.055Z,10.80
2023-05-22T00:30:14.028Z,10.80
2023-05-22T00:30:24.854Z,10.50
2023-05-22T00:30:35.900Z,9.90
2023-05-22T00:30:46.860Z,10.10
2023-05-22T00:30:57.620Z,10.10
2023-05-22T00:31:08.679Z,10.50
2023-05-22T00:31:19.697Z,10.40
2023-05-22T00:31:30.460Z,10.40
2023-05-22T00:31:41.486Z,10.50
2023-05-22T00:31:52.474Z,10.20
2023-05-22T00:32:03.241Z,10.10
2023-05-22T00:32:14.291Z,10.20
2023-05-22T00:32:25.328Z,10.20
2023-05-22T00:32:36.080Z,10.40
2023-05-22T00:32:47.169Z,10.30
2023-05-22T00:32:58.129Z,10.60
2023-05-22T00:33:08.912Z,10.50
2023-05-22T00:33:19.911Z,10.60
2023-05-22T00:33:30.881Z,10.40
2023-05-22T00:33:41.650Z,10.20
2023-05-22T00:33:52.791Z,10.20
2023-05-22T00:34:03.749Z,10.00
2023-05-22T00:34:14.524Z,9.90
2023-05-22T00:34:25.566Z,10.10
2023-05-22T00:34:36.709Z,10.70
2023-05-22T00:34:47.569Z,10.90
2023-05-22T00:34:58.082Z,11.00
2023-05-22T00:35:09.052Z,10.80
2023-05-22T00:35:19.824Z,11.10
2023-05-22T00:35:30.863Z,10.60
2023-05-22T00:35:41.851Z,10.60
2023-05-22T00:35:52.618Z,10.50
2023-05-22T00:36:03.685Z,10.80
2023-05-22T00:36:14.647Z,10.50
2023-05-22T00:36:25.427Z,10.50
2023-05-22T00:36:36.469Z,10.50
2023-05-22T00:36:47.433Z,10.80
2023-05-22T00:36:58.231Z,11.10
2023-05-22T00:37:09.265Z,11.00
2023-05-22T00:37:20.269Z,10.80
2023-05-22T00:37:31.026Z,10.70
2023-05-22T00:37:42.074Z,10.30
2023-05-22T00:37:53.077Z,10.30
2023-05-22T00:38:03.852Z,10.30
2023-05-22T00:38:14.896Z,10.40
2023-05-22T00:38:25.897Z,10.20
2023-05-22T00:38:36.650Z,10.10
2023-05-22T00:38:47.670Z,10.30
2023-05-22T00:38:58.729Z,10.50
2023-05-22T00:39:09.459Z,10.50
2023-05-22T00:39:20.505Z,10.30
2023-05-22T00:39:31.502Z,10.50
2023-05-22T00:39:42.260Z,10.50
2023-05-22T00:39:53.400Z,10.60
2023-05-22T00:40:04.333Z,10.60
2023-05-22T00:40:15.118Z,10.60
2023-05-22T00:40:26.173Z,10.80
2023-05-22T00:40:37.321Z,10.50
2023-05-22T00:40:47.735Z,10.50
2023-05-22T00:40:58.786Z,10.50
2023-05-22T00:41:09.773Z,10.60
2023-05-22T00:41:20.526Z,10.10
2023-05-22T00:41:31.576Z,10.30
2023-05-22T00:41:42.547Z,10.30
2023-05-22T00:41:53.327Z,10.50
2023-05-22T00:42:04.377Z,10.60
2023-05-22T00:42:15.349Z,10.60
2023-05-22T00:42:26.106Z,10.80
2023-05-22T00:42:37.195Z,10.50
2023-05-22T00:42:48.228Z,10.60
2023-05-22T00:42:58.961Z,10.40
2023-05-22T00:43:10.027Z,10.70
2023-05-22T00:43:20.983Z,10.50
2023-05-22T00:43:31.750Z,11.10
2023-05-22T00:43:42.825Z,11.10
2023-05-22T00:43:53.761Z,11.00
2023-05-22T00:44:04.534Z,10.70
2023-05-22T00:44:15.583Z,10.80
2023-05-22T00:44:26.548Z,10.90
2023-05-22T00:44:37.312Z,11.30
2023-05-22T00:44:48.375Z,11.30
2023-05-22T00:44:59.325Z,11.00
2023-05-22T00:45:10.104Z,10.80
2023-05-22T00:45:21.197Z,10.50
2023-05-22T00:45:32.121Z,10.50
2023-05-22T00:45:42.892Z,10.40
2023-05-22T00:45:53.950Z,10.80
2023-05-22T00:46:04.943Z,10.90
2023-05-22T00:46:15.727Z,11.00
2023-05-22T00:46:26.824Z,10.70
2023-05-22T00:46:37.757Z,10.60
2023-05-22T00:46:48.598Z,10.40
2023-05-22T00:46:59.820Z,10.50
2023-05-22T00:47:10.396Z,10.40
2023-05-22T00:47:21.175Z,10.30
2023-05-22T00:47:32.273Z,10.30
2023-05-22T00:47:43.336Z,10.50
2023-05-22T00:47:54.153Z,10.60
2023-05-22T00:48:04.752Z,10.80
2023-05-22T00:48:15.360Z,10.40
2023-05-22T00:48:26.093Z,10.80
2023-05-22T00:48:37.185Z,11.00
2023-05-22T00:48:48.155Z,11.20
2023-05-22T00:48:58.955Z,11.00
2023-05-22T00:49:09.962Z,11.00
2023-05-22T00:49:20.963Z,11.00
2023-05-22T00:49:31.734Z,11.10
2023-05-22T00:49:42.780Z,11.20
2023-05-22T00:49:53.715Z,11.20
2023-05-22T00:50:04.496Z,11.00
2023-05-22T00:50:15.640Z,10.70
2023-05-22T00:50:26.552Z,10.60
2023-05-22T00:50:37.560Z,10.50
2023-05-22T00:50:48.268Z,10.70
2023-05-22T00:50:59.246Z,10.30
2023-05-22T00:51:10.021Z,10.60
2023-05-22T00:51:21.084Z,11.00
2023-05-22T00:51:32.021Z,11.10
2023-05-22T00:51:42.781Z,10.90
2023-05-22T00:51:53.858Z,10.60
2023-05-22T00:52:04.802Z,10.50
2023-05-22T00:52:15.660Z,10.40
2023-05-22T00:52:26.140Z,10.50
2023-05-22T00:52:37.156Z,10.60
2023-05-22T00:52:47.934Z,11.00
2023-05-22T00:52:58.972Z,11.10
2023-05-22T00:53:09.939Z,10.80
2023-05-22T00:53:20.716Z,10.80
2023-05-22T00:53:31.823Z,10.50
2023-05-22T00:53:42.776Z,10.70
2023-05-22T00:53:53.522Z,10.50
2023-05-22T00:54:04.570Z,10.60
2023-05-22T00:54:15.561Z,10.80
2023-05-22T00:54:26.326Z,10.60
2023-05-22T00:54:37.358Z,11.00
2023-05-22T00:54:48.357Z,11.40
2023-05-22T00:54:59.108Z,11.20
2023-05-22T00:55:10.148Z,10.90
2023-05-22T00:55:21.156Z,10.50
2023-05-22T00:55:31.904Z,10.70
2023-05-22T00:55:42.965Z,10.70
2023-05-22T00:55:53.967Z,10.60
2023-05-22T00:56:04.872Z,10.30
2023-05-22T00:56:15.923Z,10.20
2023-05-22T00:56:26.887Z,10.10
2023-05-22T00:56:37.797Z,10.60
2023-05-22T00:56:48.247Z,10.40
2023-05-22T00:56:59.202Z,10.50
2023-05-22T00:57:10.037Z,10.20
2023-05-22T00:57:20.532Z,10.40
2023-05-22T00:57:31.505Z,10.80
2023-05-22T00:57:42.280Z,10.80
2023-05-22T00:57:53.321Z,10.70
2023-05-22T00:58:04.382Z,10.80
2023-05-22T00:58:15.115Z,10.70
2023-05-22T00:58:26.173Z,11.00
2023-05-22T00:58:37.146Z,10.90
2023-05-22T00:58:47.907Z,10.90
2023-05-22T00:58:58.961Z,10.50
2023-05-22T00:59:09.908Z,10.60
2023-05-22T00:59:20.708Z,10.60
2023-05-22T00:59:31.771Z,10.60
2023-05-22T00:59:42.704Z,10.60
2023-05-22T00:59:53.492Z,10.80
2023-05-22T01:00:04.537Z,10.50
2023-05-22T01:00:15.498Z,10.00
2023-05-22T01:00:26.419Z,10.10
2023-05-22T01:00:37.085Z,10.80
2023-05-22T01:00:47.575Z,10.90
2023-05-22T01:00:58.326Z,11.30
2023-05-22T01:01:09.369Z,11.20
2023-05-22T01:01:20.346Z,10.80
2023-05-22T01:01:31.150Z,10.70
2023-05-22T01:01:42.320Z,10.90
2023-05-22T01:01:52.781Z,10.70
2023-05-22T01:02:03.585Z,10.70
2023-05-22T01:02:14.116Z,11.00
2023-05-22T01:02:25.140Z,11.10
2023-05-22T01:02:35.935Z,11.00
2023-05-22T01:02:46.521Z,10.80
2023-05-22T01:02:57.533Z,10.80
2023-05-22T01:03:08.383Z,10.60
2023-05-22T01:03:18.967Z,10.80
2023-05-22T01:03:29.583Z,10.70
2023-05-22T01:03:40.462Z,10.50
2023-05-22T01:03:51.013Z,10.50
2023-05-22T01:04:02.254Z,10.60
2023-05-22T01:04:13.103Z,10.50
2023-05-22T01:04:24.145Z,10.20
2023-05-22T01:04:35.130Z,10.20
2023-05-22T01:04:45.896Z,10.30
2023-05-22T01:04:56.949Z,10.40
2023-05-22T01:05:07.926Z,10.30
2023-05-22T01:05:18.688Z,10.30
2023-05-22T01:05:29.730Z,10.10
2023-05-22T01:05:40.771Z,10.10
2023-05-22T01:05:51.529Z,10.20
2023-05-22T01:06:02.076Z,10.60
2023-05-22T01:06:13.045Z,10.50
2023-05-22T01:06:23.787Z,10.40
2023-05-22T01:06:34.893Z,10.60
2023-05-22T01:06:45.821Z,10.90
2023-05-22T01:06:56.580Z,10.60
2023-05-22T01:07:07.657Z,10.40
2023-05-22T01:07:18.776Z,10.30
2023-05-22T01:07:29.538Z,11.00
2023-05-22T01:07:40.617Z,10.70
2023-05-22T01:07:51.554Z,10.90
2023-05-22T01:08:02.319Z,10.70
2023-05-22T01:08:13.392Z,10.60
2023-05-22T01:08:24.337Z,10.40
2023-05-22T01:08:35.115Z,10.50
2023-05-22T01:08:46.199Z,10.90
2023-05-22T01:08:57.250Z,11.10
2023-05-22T01:09:07.963Z,11.20
2023-05-22T01:09:19.007Z,11.30
2023-05-22T01:09:29.964Z,10.90
2023-05-22T01:09:40.796Z,10.50
2023-05-22T01:09:51.287Z,10.50
2023-05-22T01:10:02.254Z,10.80
2023-05-22T01:10:13.028Z,11.00
2023-05-22T01:10:24.115Z,10.80
2023-05-22T01:10:35.065Z,10.90
2023-05-22T01:10:45.822Z,10.80
2023-05-22T01:10:56.889Z,10.90
2023-05-22T01:11:07.849Z,10.90
2023-05-22T01:11:18.607Z,10.70
2023-05-22T01:11:29.663Z,10.20
2023-05-22T01:11:40.630Z,9.90
2023-05-22T01:11:51.404Z,10.30
2023-05-22T01:12:02.451Z,10.40
2023-05-22T01:12:13.421Z,10.30
2023-05-22T01:12:24.208Z,10.40
2023-05-22T01:12:35.345Z,10.50
2023-05-22T01:12:45.790Z,10.40
2023-05-22T01:12:56.553Z,10.10
2023-05-22T01:13:07.655Z,10.40
2023-05-22T01:13:18.596Z,10.60
2023-05-22T01:13:29.361Z,10.60
2023-05-22T01:13:40.486Z,10.70
2023-05-22T01:13:51.408Z,10.70
2023-05-22T01:14:02.170Z,10.60
2023-05-22T01:14:13.212Z,10.60
2023-05-22T01:14:24.178Z,10.60
2023-05-22T01:14:34.927Z,10.20
2023-05-22T01:14:46.017Z,10.40
2023-05-22T01:14:56.961Z,10.70
2023-05-22T01:15:07.722Z,10.70
2023-05-22T01:15:18.795Z,10.70
2023-05-22T01:15:29.772Z,10.60
2023-05-22T01:15:40.529Z,11.00
2023-05-22T01:15:51.597Z,10.90
2023-05-22T01:16:02.608Z,10.90
2023-05-22T01:16:13.407Z,10.50
2023-05-22T01:16:23.951Z,10.80
2023-05-22T01:16:34.947Z,11.10
2023-05-22T01:16:45.763Z,11.20
2023-05-22T01:16:56.272Z,11.00
2023-05-22T01:17:07.258Z,10.80
2023-05-22T01:17:18.055Z,11.20
2023-05-22T01:17:29.107Z,11.20
2023-05-22T01:17:40.180Z,11.00
2023-05-22T01:17:50.971Z,10.60
2023-05-22T01:18:01.506Z,10.60
2023-05-22T01:18:12.579Z,10.80
2023-05-22T01:18:23.418Z,10.90
2023-05-22T01:18:34.479Z,10.90
2023-05-22T01:18:45.511Z,10.80
2023-05-22T01:18:56.332Z,10.60
2023-05-22T01:19:07.411Z,10.70
2023-05-22T01:19:18.429Z,10.40
2023-05-22T01:19:29.178Z,10.60
2023-05-22T01:19:40.344Z,10.40
2023-05-22T01:19:51.268Z,10.40
2023-05-22T01:20:02.116Z,10.20
2023-05-22T01:20:12.616Z,10.40
2023-05-22T01:20:23.576Z,10.60
2023-05-22T01:20:34.379Z,10.40
2023-05-22T01:20:46.591Z,10.30
2023-05-22T01:20:56.390Z,10.30
2023-05-22T01:21:07.159Z,10.70
2023-05-22T01:21:18.230Z,10.70
2023-05-22T01:21:29.184Z,10.50
2023-05-22T01:21:39.955Z,10.30
2023-05-22T01:21:51.013Z,10.50
2023-05-22T01:22:02.008Z,10.20
2023-05-22T01:22:12.848Z,10.70
2023-05-22T01:22:23.318Z,10.50
2023-05-22T01:22:34.289Z,10.80
2023-05-22T01:22:45.080Z,10.80
2023-05-22T01:22:56.122Z,10.80
2023-05-22T01:23:07.088Z,10.30
2023-05-22T01:23:17.851Z,10.40
2023-05-22T01:23:28.898Z,10.40
2023-05-22T01:23:39.868Z,10.40
2023-05-22T01:23:50.640Z,10.80
2023-05-22T01:24:01.722Z,11.00
2023-05-22T01:24:12.649Z,11.20
2023-05-22T01:24:23.412Z,11.20
2023-05-22T01:24:34.456Z,11.10
2023-05-22T01:24:45.444Z,11.00
2023-05-22T01:24:56.215Z,11.00
2023-05-22T01:25:07.268Z,11.00
2023-05-22T01:25:18.226Z,10.90
2023-05-22T01:25:28.995Z,10.80
2023-05-22T01:25:40.029Z,10.60
2023-05-22T01:25:50.999Z,10.40
2023-05-22T01:26:01.770Z,10.50
2023-05-22T01:26:12.819Z,10.30
2023-05-22T01:26:23.770Z,10.30
2023-05-22T01:26:34.567Z,10.30
2023-05-22T01:26:45.622Z,10.30
2023-05-22T01:26:56.568Z,10.10
2023-05-22T01:27:07.342Z,10.20
2023-05-22T01:27:18.400Z,10.10
2023-05-22T01:27:29.358Z,10.10
2023-05-22T01:27:40.321Z,10.20
2023-05-22T01:27:50.785Z,10.60
2023-05-22T01:28:01.748Z,10.70
2023-05-22T01:28:12.517Z,10.70
2023-05-22T01:28:23.642Z,10.90
2023-05-22T01:28:34.576Z,11.00
2023-05-22T01:28:45.326Z,10.60
2023-05-22T01:28:56.388Z,10.40
2023-05-22T01:29:07.344Z,10.20
2023-05-22T01:29:18.126Z,10.20
2023-05-22T01:29:29.164Z,10.40
2023-05-22T01:29:40.123Z,10.70
2023-05-22T01:29:50.900Z,10.40
2023-05-22T01:30:01.947Z,10.40
2023-05-22T01:30:12.920Z,10.40
2023-05-22T01:30:23.670Z,10.70
2023-05-22T01:30:34.706Z,10.50
2023-05-22T01:30:45.675Z,10.30
2023-05-22T01:30:56.465Z,9.60
2023-05-22T01:31:07.515Z,9.70
2023-05-22T01:31:18.477Z,9.80
2023-05-22T01:31:29.366Z,10.30
2023-05-22T01:31:39.813Z,10.10
2023-05-22T01:31:50.794Z,10.00
2023-05-22T01:32:01.651Z,9.70
2023-05-22T01:32:12.137Z,10.20
2023-05-22T01:32:23.171Z,10.70
2023-05-22T01:32:34.017Z,10.70
2023-05-22T01:32:44.637Z,10.60
2023-05-22T01:32:55.168Z,10.40
2023-05-22T01:33:05.921Z,10.60
2023-05-22T01:33:16.971Z,10.30
2023-05-22T01:33:27.594Z,10.30
2023-05-22T01:33:38.465Z,10.60
2023-05-22T01:33:49.157Z,10.80
2023-05-22T01:33:59.715Z,10.80
2023-05-22T01:34:10.477Z,10.50
2023-05-22T01:34:21.510Z,10.70
2023-05-22T01:34:32.525Z,11.00
2023-05-22T01:34:43.275Z,11.30
2023-05-22T01:34:54.330Z,11.00
2023-05-22T01:35:05.283Z,11.10
2023-05-22T01:35:16.070Z,10.70
2023-05-22T01:35:27.131Z,10.50
2023-05-22T01:35:38.068Z,10.40
2023-05-22T01:35:48.834Z,10.40
2023-05-22T01:35:59.884Z,10.80
2023-05-22T01:36:10.855Z,10.70
2023-05-22T01:36:21.639Z,11.30
2023-05-22T01:36:32.655Z,11.20
2023-05-22T01:36:43.630Z,11.00
2023-05-22T01:36:54.387Z,10.90
2023-05-22T01:37:05.439Z,11.10
2023-05-22T01:37:16.401Z,11.20
2023-05-22T01:37:27.174Z,11.00
2023-05-22T01:37:38.222Z,10.70
2023-05-22T01:37:49.193Z,10.40
2023-05-22T01:37:59.978Z,10.70
2023-05-22T01:38:11.036Z,11.10
2023-05-22T01:38:21.983Z,10.90
2023-05-22T01:38:32.746Z,10.70
2023-05-22T01:38:43.799Z,10.70
2023-05-22T01:38:54.793Z,10.60
2023-05-22T01:39:05.631Z,10.80
2023-05-22T01:39:16.093Z,10.80
2023-05-22T01:39:27.054Z,10.70
2023-05-22T01:39:37.836Z,10.60
2023-05-22T01:39:48.910Z,10.60
2023-05-22T01:39:59.855Z,10.60
2023-05-22T01:40:10.617Z,10.80
2023-05-22T01:40:21.705Z,10.40
2023-05-22T01:40:32.669Z,10.50
2023-05-22T01:40:43.410Z,11.20
2023-05-22T01:40:54.480Z,11.10
2023-05-22T01:41:05.441Z,10.70
2023-05-22T01:41:16.224Z,10.40
2023-05-22T01:41:27.289Z,10.40
2023-05-22T01:41:38.254Z,10.70
2023-05-22T01:41:49.045Z,10.70
2023-05-22T01:42:00.245Z,10.90
2023-05-22T01:42:10.689Z,10.60
2023-05-22T01:42:21.486Z,10.40
2023-05-22T01:42:32.519Z,10.50
2023-05-22T01:42:43.486Z,10.80
2023-05-22T01:42:54.273Z,10.80
2023-05-22T01:43:05.323Z,10.60
2023-05-22T01:43:16.306Z,10.40
2023-05-22T01:43:27.068Z,10.30
2023-05-22T01:43:38.100Z,10.50
2023-05-22T01:43:49.091Z,10.70
2023-05-22T01:43:59.830Z,10.40
2023-05-22T01:44:10.885Z,10.20
2023-05-22T01:44:21.842Z,10.20
2023-05-22T01:44:32.620Z,10.70
2023-05-22T01:44:43.734Z,10.60
2023-05-22T01:44:54.657Z,10.70
2023-05-22T01:45:05.421Z,10.40
2023-05-22T01:45:16.476Z,10.80
2023-05-22T01:45:27.472Z,11.10
2023-05-22T01:45:38.228Z,11.10
2023-05-22T01:45:49.341Z,10.60
2023-05-22T01:46:00.331Z,10.70
2023-05-22T01:46:11.130Z,10.60
2023-05-22T01:46:22.306Z,10.90
2023-05-22T01:46:32.756Z,10.60
2023-05-22T01:46:43.526Z,10.80
2023-05-22T01:46:54.567Z,10.50
2023-05-22T01:47:05.525Z,10.50
2023-05-22T01:47:16.316Z,10.70
2023-05-22T01:47:27.376Z,10.80
2023-05-22T01:47:38.355Z,10.90
2023-05-22T01:47:49.130Z,10.60
2023-05-22T01:48:00.231Z,10.60
2023-05-22T01:48:11.230Z,10.90
2023-05-22T01:48:21.969Z,11.20
2023-05-22T01:48:33.044Z,11.00
2023-05-22T01:48:44.019Z,11.00
2023-05-22T01:48:54.806Z,11.10
2023-05-22T01:49:05.843Z,10.90
2023-05-22T01:49:16.899Z,10.80
2023-05-22T01:49:27.630Z,10.90
2023-05-22T01:49:38.723Z,11.20
2023-05-22T01:49:49.666Z,11.10
2023-05-22T01:50:00.445Z,10.80
2023-05-22T01:50:11.504Z,10.80
2023-05-22T01:50:22.491Z,11.10
2023-05-22T01:50:33.238Z,11.10
2023-05-22T01:50:44.340Z,11.30
2023-05-22T01:50:55.326Z,11.30
2023-05-22T01:51:06.143Z,11.40
2023-05-22T01:51:16.655Z,11.50
2023-05-22T01:51:27.616Z,11.40
2023-05-22T01:51:38.374Z,11.20
2023-05-22T01:51:49.437Z,10.90
2023-05-22T01:52:00.450Z,10.60
2023-05-22T01:52:11.203Z,10.80
2023-05-22T01:52:22.248Z,10.80
2023-05-22T01:52:33.226Z,11.30
2023-05-22T01:52:44.000Z,11.30
2023-05-22T01:52:55.053Z,11.40
2023-05-22T01:53:06.023Z,11.10
2023-05-22T01:53:16.829Z,11.50
2023-05-22T01:53:27.870Z,12.10
2023-05-22T01:53:38.828Z,12.10
2023-05-22T01:53:49.616Z,11.60
2023-05-22T01:54:00.648Z,11.30
2023-05-22T01:54:11.646Z,11.10
2023-05-22T01:54:22.414Z,11.50
2023-05-22T01:54:33.471Z,11.50
2023-05-22T01:54:44.435Z,11.80
2023-05-22T01:54:55.203Z,11.60
2023-05-22T01:55:06.320Z,11.90
2023-05-22T01:55:17.270Z,12.00
2023-05-22T01:55:28.009Z,11.80
2023-05-22T01:55:39.055Z,12.30
2023-05-22T01:55:50.040Z,12.00
2023-05-22T01:56:00.808Z,11.80
2023-05-22T01:56:11.862Z,11.30
2023-05-22T01:56:22.829Z,11.10
2023-05-22T01:56:33.590Z,10.90
2023-05-22T01:56:44.650Z,11.30
2023-05-22T01:56:55.605Z,11.20
2023-05-22T01:57:06.400Z,10.80
2023-05-22T01:57:17.432Z,10.80
2023-05-22T01:57:28.387Z,11.20
2023-05-22T01:57:39.153Z,11.10
2023-05-22T01:57:50.201Z,10.90
2023-05-22T01:58:01.200Z,10.90
2023-05-22T01:58:11.978Z,11.20
2023-05-22T01:58:23.010Z,11.00
2023-05-22T01:58:33.985Z,11.20
2023-05-22T01:58:44.762Z,11.30
2023-05-22T01:58:55.820Z,11.40
2023-05-22T01:59:06.827Z,11.10
2023-05-22T01:59:17.559Z,11.30
2023-05-22T01:59:28.606Z,11.30
2023-05-22T01:59:39.586Z,11.00
2023-05-22T01:59:50.354Z,10.90
2023-05-22T02:00:01.395Z,11.00
2023-05-22T02:00:12.386Z,11.10
2023-05-22T02:00:23.444Z,10.90
2023-05-22T02:00:33.932Z,10.90
2023-05-22T02:00:44.898Z,10.90
2023-05-22T02:00:55.690Z,10.80
2023-05-22T02:01:06.756Z,10.80
2023-05-22T02:01:17.731Z,10.90
2023-05-22T02:01:28.548Z,10.50
2023-05-22T02:01:39.197Z,10.50
2023-05-22T02:01:49.835Z,10.70
2023-05-22T02:02:00.672Z,10.80
2023-05-22T02:02:11.232Z,10.90
2023-05-22T02:02:22.281Z,11.00
2023-05-22T02:02:33.168Z,10.70
2023-05-22T02:02:43.768Z,10.70
2023-05-22T02:02:54.360Z,10.30
2023-05-22T02:03:05.230Z,10.30
2023-05-22T02:03:15.816Z,10.50
2023-05-22T02:03:26.598Z,10.60
2023-05-22T02:03:37.206Z,10.80
2023-05-22T02:03:47.728Z,10.70
2023-05-22T02:03:58.686Z,10.80
2023-05-22T02:04:09.453Z,10.60
2023-05-22T02:04:20.497Z,10.80
2023-05-22T02:04:31.467Z,10.60
2023-05-22T02:04:42.292Z,10.40
2023-05-22T02:04:52.884Z,10.60
2023-05-22T02:05:03.810Z,10.80
2023-05-22T02:05:14.598Z,11.10
2023-05-22T02:05:25.637Z,10.90
2023-05-22T02:05:36.596Z,10.90
2023-05-22T02:05:47.414Z,10.70
2023-05-22T02:05:58.434Z,10.80
2023-05-22T02:06:09.397Z,10.50
2023-05-22T02:06:20.176Z,10.60
2023-05-22T02:06:31.222Z,10.50
2023-05-22T02:06:42.195Z,11.00
2023-05-22T02:06:52.945Z,11.10
2023-05-22T02:07:04.014Z,10.80
2023-05-22T02:07:14.962Z,10.70
2023-05-22T02:07:25.724Z,10.70
2023-05-22T02:07:36.808Z,11.20
2023-05-22T02:07:47.762Z,11.40
2023-05-22T02:07:58.557Z,11.30
2023-05-22T02:08:09.570Z,10.70
2023-05-22T02:08:20.553Z,10.90
2023-05-22T02:08:31.326Z,11.40
2023-05-22T02:08:42.370Z,11.70
2023-05-22T02:08:53.339Z,11.50
2023-05-22T02:09:04.120Z,10.90
2023-05-22T02:09:15.245Z,11.10
2023-05-22T02:09:26.212Z,11.00
2023-05-22T02:09:36.983Z,11.40
2023-05-22T02:09:48.012Z,11.10
2023-05-22T02:09:58.997Z,10.90
2023-05-22T02:10:09.767Z,10.80
2023-05-22T02:10:20.822Z,11.10
2023-05-22T02:10:31.808Z,11.10
2023-05-22T02:10:42.563Z,11.10
2023-05-22T02:10:53.623Z,11.20
2023-05-22T02:11:04.603Z,11.40
2023-05-22T02:11:15.363Z,11.20
2023-05-22T02:11:26.472Z,11.10
2023-05-22T02:11:37.388Z,10.70
2023-05-22T02:11:48.218Z,11.00
2023-05-22T02:11:59.252Z,11.30
2023-05-22T02:12:10.206Z,11.60
2023-05-22T02:12:20.996Z,11.80
2023-05-22T02:12:32.034Z,11.70
2023-05-22T02:12:43.026Z,11.40
2023-05-22T02:12:53.775Z,11.50
2023-05-22T02:13:04.827Z,11.90
2023-05-22T02:13:15.809Z,12.30
2023-05-22T02:13:26.574Z,12.00
2023-05-22T02:13:37.643Z,11.70
2023-05-22T02:13:48.613Z,11.40
2023-05-22T02:13:59.384Z,11.70
2023-05-22T02:14:10.418Z,11.70
2023-05-22T02:14:21.386Z,11.80
2023-05-22T02:14:32.177Z,11.10
2023-05-22T02:14:43.232Z,11.10
2023-05-22T02:14:54.171Z,11.10
2023-05-22T02:15:04.935Z,11.40
2023-05-22T02:15:15.986Z,11.30
2023-05-22T02:15:27.019Z,11.20
2023-05-22T02:15:37.835Z,11.40
2023-05-22T02:15:48.947Z,11.50
2023-05-22T02:15:59.890Z,11.60
2023-05-22T02:16:10.688Z,11.70
2023-05-22T02:16:21.867Z,11.60
2023-05-22T02:16:32.402Z,11.40
2023-05-22T02:16:43.128Z,11.20
2023-05-22T02:16:54.183Z,11.30
2023-05-22T02:17:05.167Z,11.30
2023-05-22T02:17:15.908Z,11.70
2023-05-22T02:17:26.975Z,11.10
2023-05-22T02:17:38.029Z,10.90
2023-05-22T02:17:48.811Z,11.00
2023-05-22T02:17:59.438Z,11.00
2023-05-22T02:18:10.407Z,11.40
2023-05-22T02:18:21.160Z,11.60
2023-05-22T02:18:32.215Z,11.70
2023-05-22T02:18:43.326Z,11.60
2023-05-22T02:18:54.313Z,11.80
2023-05-22T02:19:05.442Z,11.40
2023-05-22T02:19:16.438Z,11.60
2023-05-22T02:19:27.249Z,11.40
2023-05-22T02:19:37.827Z,11.60
2023-05-22T02:19:48.762Z,11.30
2023-05-22T02:19:59.535Z,10.90
2023-05-22T02:20:10.609Z,11.10
2023-05-22T02:20:21.579Z,11.40
2023-05-22T02:20:32.323Z,11.70